Main page
METAR-TAF:

METAR-TAF

Airports :

Grodno, Belarus

Hrodna Airport

latitude: 53-36-06N, longitude: 024-03-18E, elevation: 135 m

Current weather observation

The report was made 33 minutes ago, at 16:00 UTC
Wind 6 kt from the Northwest
Temperature -7°C
Humidity 79%
Pressure 1024 hPa
Visibility 10 km or more
Few clouds at a height of 2300 ft

METAR: UMMG 231600Z 32003MPS 9999 FEW023 M07/M10 Q1024 NOSIG

Time: 19:33 (16:33 UTC)

Forecast

The report was made 2 hours and 33 minutes ago, at 14:00 UTC
Forecast valid from 23 at 15 UTC to 23 at 24 UTC
Wind 12 kt from the North
Visibility: 6000 m
Broken clouds at a height of 700 ft
Broken clouds at a height of 1500 ft
Temporary
from 23 at 15 UTC to 23 at 21 UTC
Visibility: 2100 m
Broken clouds at a height of 500 ft
light snow, mist

TAF: UMMG 231400Z 2315/2324 36006MPS 6000 BKN007 BKN015 TEMPO 2315/2321 2100 -SN BR BKN005

Weather observations and forecasts of more than 4000 airports (METAR and TAF reports).

The available stations are represented by yellow and red dots on the map.

Hover mouse over dot to see the name of the station.

Then click to see weather observations and forecasts.

To change the map : click on the green buttons with a black cross to zoom in, on the green button with a dash to zoom out, or on the green arrows for adjacent maps.


METAR-TAF: